createdAt,value
2023-05-15T00:00:46.649Z,57.70
2023-05-15T00:03:14.609Z,57.70
2023-05-15T00:05:42.902Z,57.60
2023-05-15T00:08:10.806Z,57.60
2023-05-15T00:10:40.928Z,57.60
2023-05-15T00:13:10.815Z,57.50
2023-05-15T00:15:38.707Z,57.50
2023-05-15T00:18:08.084Z,57.40
2023-05-15T00:20:36.237Z,57.30
2023-05-15T00:23:04.184Z,57.30
2023-05-15T00:25:32.150Z,57.20
2023-05-15T00:28:00.036Z,57.20
2023-05-15T00:30:30.446Z,57.10
2023-05-15T00:32:58.368Z,57.10
2023-05-15T00:35:27.620Z,57.00
2023-05-15T00:37:55.611Z,57.00
2023-05-15T00:40:23.616Z,56.90
2023-05-15T00:42:51.706Z,56.90
2023-05-15T00:45:19.743Z,56.90
2023-05-15T00:47:48.525Z,56.80
2023-05-15T00:50:16.415Z,56.80
2023-05-15T00:52:45.908Z,56.80
2023-05-15T00:55:13.861Z,57.70
2023-05-15T00:57:42.394Z,56.70
2023-05-15T01:00:11.786Z,57.60
2023-05-15T01:02:39.882Z,56.60
2023-05-15T01:05:09.035Z,56.60
2023-05-15T01:07:44.851Z,56.50
2023-05-15T01:10:14.170Z,56.50
2023-05-15T01:12:42.148Z,56.40
2023-05-15T01:15:10.914Z,56.40
2023-05-15T01:17:38.872Z,56.20
2023-05-15T01:20:09.277Z,56.40
2023-05-15T01:23:00.495Z,56.40
2023-05-15T01:26:10.453Z,56.30
2023-05-15T01:28:40.896Z,56.30
2023-05-15T01:31:12.155Z,56.20
2023-05-15T01:33:41.537Z,56.10
2023-05-15T01:36:13.271Z,56.20
2023-05-15T01:38:44.042Z,56.10
2023-05-15T01:41:17.118Z,56.10
2023-05-15T01:43:50.452Z,56.00
2023-05-15T01:46:19.386Z,56.10
2023-05-15T01:48:47.416Z,56.10
2023-05-15T01:51:15.345Z,56.10
2023-05-15T01:53:43.268Z,56.10
2023-05-15T01:56:13.549Z,56.00
2023-05-15T01:58:41.706Z,55.90
2023-05-15T02:01:11.126Z,55.90
2023-05-15T02:03:39.121Z,55.90
2023-05-15T02:06:07.433Z,55.80
2023-05-15T02:08:35.379Z,55.60
2023-05-15T02:11:04.412Z,55.60
2023-05-15T02:13:32.391Z,55.50
2023-05-15T02:16:00.333Z,55.50
2023-05-15T02:18:30.000Z,55.40
2023-05-15T02:21:00.969Z,55.40
2023-05-15T02:23:28.929Z,55.40
2023-05-15T02:26:15.736Z,55.30
2023-05-15T02:28:49.437Z,55.30
2023-05-15T02:31:21.696Z,55.30
2023-05-15T02:33:53.838Z,55.20
2023-05-15T02:36:23.569Z,55.20
2023-05-15T02:38:53.226Z,55.10
2023-05-15T02:41:21.319Z,55.10
2023-05-15T02:43:49.303Z,54.90
2023-05-15T02:46:17.693Z,54.90
2023-05-15T02:48:45.758Z,54.90
2023-05-15T02:51:15.611Z,54.80
2023-05-15T02:53:44.160Z,54.80
2023-05-15T02:56:12.117Z,54.70
2023-05-15T02:58:40.016Z,54.60
2023-05-15T03:01:08.282Z,54.60
2023-05-15T03:03:36.326Z,54.70
2023-05-15T03:06:04.290Z,54.60
2023-05-15T03:08:33.533Z,54.60
2023-05-15T03:11:01.488Z,54.50
2023-05-15T03:13:29.453Z,54.50
2023-05-15T03:15:57.459Z,54.50
2023-05-15T03:18:25.449Z,54.60
2023-05-15T03:20:53.712Z,54.70
2023-05-15T03:23:21.707Z,54.70
2023-05-15T03:25:51.079Z,54.70
2023-05-15T03:28:19.031Z,54.70
2023-05-15T03:30:46.956Z,54.80
2023-05-15T03:33:14.897Z,55.40
2023-05-15T03:35:42.795Z,55.60
2023-05-15T03:38:10.683Z,56.00
2023-05-15T03:40:39.639Z,56.20
2023-05-15T03:43:08.933Z,57.40
2023-05-15T03:45:37.375Z,56.50
2023-05-15T03:48:05.979Z,56.60
2023-05-15T03:50:34.267Z,56.70
2023-05-15T03:53:02.158Z,56.80
2023-05-15T03:55:30.039Z,56.80
2023-05-15T03:57:58.407Z,56.90
2023-05-15T04:00:27.802Z,57.00
2023-05-15T04:02:55.920Z,57.00
2023-05-15T04:05:24.059Z,57.20
2023-05-15T04:07:52.132Z,57.20
2023-05-15T04:10:20.316Z,57.30
2023-05-15T04:12:48.393Z,57.40
2023-05-15T04:15:17.340Z,57.40
2023-05-15T04:17:46.962Z,58.50
2023-05-15T04:20:15.694Z,57.50
2023-05-15T04:22:43.759Z,57.60
2023-05-15T04:25:12.026Z,57.70
2023-05-15T04:27:40.102Z,57.80
2023-05-15T04:30:09.003Z,57.80
2023-05-15T04:32:37.459Z,57.90
2023-05-15T04:35:09.413Z,58.00
2023-05-15T04:37:37.348Z,58.00
2023-05-15T04:40:07.194Z,58.00
2023-05-15T04:42:35.119Z,58.10
2023-05-15T04:45:03.313Z,58.20
2023-05-15T04:47:31.348Z,58.30
2023-05-15T04:49:59.284Z,58.30
2023-05-15T04:52:28.584Z,58.50
2023-05-15T04:54:56.476Z,58.60
2023-05-15T04:57:25.533Z,58.60
2023-05-15T04:59:53.523Z,58.70
2023-05-15T05:02:22.264Z,58.80
2023-05-15T05:04:50.407Z,59.00
2023-05-15T05:07:18.395Z,59.00
2023-05-15T05:09:47.648Z,59.20
2023-05-15T05:12:15.613Z,58.90
2023-05-15T05:14:44.654Z,59.00
2023-05-15T05:17:12.598Z,60.00
2023-05-15T05:19:40.530Z,59.30
2023-05-15T05:22:08.482Z,59.40
2023-05-15T05:24:37.533Z,59.40
2023-05-15T05:27:07.147Z,59.40
2023-05-15T05:29:35.166Z,59.30
2023-05-15T05:32:03.127Z,59.50
2023-05-15T05:34:31.009Z,59.60
2023-05-15T05:36:58.917Z,59.70
2023-05-15T05:39:26.843Z,59.80
2023-05-15T05:41:54.731Z,59.80
2023-05-15T05:44:24.446Z,60.00
2023-05-15T05:46:53.200Z,60.00
2023-05-15T05:49:21.262Z,60.10
2023-05-15T05:51:49.278Z,60.00
2023-05-15T05:54:18.276Z,60.00
2023-05-15T05:56:46.258Z,60.00
2023-05-15T05:59:14.240Z,60.10
2023-05-15T06:01:43.506Z,60.30
2023-05-15T06:04:11.570Z,60.50
2023-05-15T06:06:39.466Z,60.40
2023-05-15T06:09:07.409Z,60.40
2023-05-15T06:11:36.734Z,60.60
2023-05-15T06:14:04.950Z,60.60
2023-05-15T06:16:32.969Z,60.70
2023-05-15T06:19:02.260Z,60.70
2023-05-15T06:21:30.200Z,60.70
2023-05-15T06:23:59.176Z,60.60
2023-05-15T06:26:27.156Z,60.70
2023-05-15T06:28:55.085Z,60.60
2023-05-15T06:31:23.147Z,60.70
2023-05-15T06:33:51.148Z,60.70
2023-05-15T06:36:20.609Z,60.70
2023-05-15T06:38:48.589Z,60.70
2023-05-15T06:41:16.555Z,60.70
2023-05-15T06:43:44.450Z,60.70
2023-05-15T06:46:12.405Z,60.70
2023-05-15T06:48:40.321Z,60.70
2023-05-15T06:51:08.272Z,60.60
2023-05-15T06:53:37.569Z,60.60
2023-05-15T06:56:06.212Z,60.60
2023-05-15T06:58:34.479Z,60.60
2023-05-15T07:01:03.740Z,60.60
2023-05-15T07:03:31.732Z,60.60
2023-05-15T07:05:59.673Z,60.70
2023-05-15T07:08:27.784Z,60.60
2023-05-15T07:10:57.018Z,60.50
2023-05-15T07:13:24.917Z,60.70
2023-05-15T07:15:52.896Z,60.50
2023-05-15T07:18:20.823Z,60.50
2023-05-15T07:20:48.782Z,60.50
2023-05-15T07:23:17.037Z,60.50
2023-05-15T07:25:46.091Z,60.50
2023-05-15T07:28:15.477Z,60.40
2023-05-15T07:30:44.526Z,60.50
2023-05-15T07:33:12.475Z,60.40
2023-05-15T07:35:40.398Z,60.50
2023-05-15T07:38:09.184Z,60.30
2023-05-15T07:40:37.128Z,60.30
2023-05-15T07:43:05.014Z,60.50
2023-05-15T07:45:34.355Z,60.60
2023-05-15T07:48:15.800Z,60.70
2023-05-15T07:50:43.766Z,60.70
2023-05-15T07:53:11.810Z,60.60
2023-05-15T07:55:39.708Z,60.80
2023-05-15T07:58:08.047Z,60.70
2023-05-15T08:00:37.332Z,60.90
2023-05-15T08:03:05.517Z,61.00
2023-05-15T08:05:33.498Z,61.10
2023-05-15T08:08:01.567Z,60.80
2023-05-15T08:10:29.512Z,60.80
2023-05-15T08:12:57.434Z,60.70
2023-05-15T08:15:25.498Z,60.80
2023-05-15T08:17:55.018Z,60.90
2023-05-15T08:20:23.110Z,60.90
2023-05-15T08:22:51.164Z,60.90
2023-05-15T08:25:19.180Z,60.80
2023-05-15T08:27:47.210Z,60.80
2023-05-15T08:30:15.480Z,60.90
2023-05-15T08:32:44.418Z,61.10
2023-05-15T08:35:13.773Z,60.70
2023-05-15T08:37:41.798Z,60.70
2023-05-15T08:40:10.290Z,60.60
2023-05-15T08:42:41.277Z,60.60
2023-05-15T08:45:10.454Z,60.60
2023-05-15T08:47:40.710Z,60.50
2023-05-15T08:50:10.950Z,60.60
2023-05-15T08:52:41.689Z,60.50
2023-05-15T08:55:10.197Z,60.50
2023-05-15T08:57:38.419Z,60.50
2023-05-15T09:00:09.412Z,60.40
2023-05-15T09:02:37.687Z,60.50
2023-05-15T09:05:06.252Z,60.50
2023-05-15T09:07:34.281Z,60.50
2023-05-15T09:10:04.209Z,60.40
2023-05-15T09:12:33.955Z,60.40
2023-05-15T09:15:11.734Z,60.40
2023-05-15T09:17:39.809Z,60.40
2023-05-15T09:20:09.361Z,60.40
2023-05-15T09:22:37.478Z,60.40
2023-05-15T09:25:08.070Z,60.30
2023-05-15T09:27:42.775Z,60.30
2023-05-15T09:30:10.912Z,60.30
2023-05-15T09:32:38.995Z,60.30
2023-05-15T09:35:08.146Z,60.30
2023-05-15T09:37:36.117Z,61.20
2023-05-15T09:40:12.273Z,60.30
2023-05-15T09:42:40.185Z,60.30
2023-05-15T09:45:09.822Z,60.20
2023-05-15T09:47:37.933Z,60.30
2023-05-15T09:50:06.717Z,60.20
2023-05-15T09:52:34.627Z,60.20
2023-05-15T09:55:02.616Z,60.10
2023-05-15T09:57:31.950Z,60.10
2023-05-15T10:00:02.438Z,60.10
2023-05-15T10:02:41.606Z,60.10
2023-05-15T10:05:09.934Z,60.10
2023-05-15T10:07:37.966Z,60.10
2023-05-15T10:10:06.815Z,60.00
2023-05-15T10:12:36.704Z,60.00
2023-05-15T10:15:05.029Z,60.00
2023-05-15T10:17:33.175Z,60.00
2023-05-15T10:20:01.464Z,60.00
2023-05-15T10:22:30.564Z,60.00
2023-05-15T10:25:04.594Z,59.90
2023-05-15T10:27:32.566Z,60.00
2023-05-15T10:30:02.138Z,59.90
2023-05-15T10:32:30.732Z,59.90
2023-05-15T10:34:58.652Z,59.90
2023-05-15T10:37:26.720Z,60.00
2023-05-15T10:39:55.864Z,59.90
2023-05-15T10:42:24.105Z,59.90
2023-05-15T10:44:52.033Z,59.90
2023-05-15T10:47:21.803Z,60.00
2023-05-15T10:49:49.755Z,60.00
2023-05-15T10:52:17.696Z,59.90
2023-05-15T10:54:45.997Z,60.00
2023-05-15T10:57:15.084Z,60.00
2023-05-15T10:59:44.120Z,60.00
2023-05-15T11:02:31.630Z,59.90
2023-05-15T11:05:00.183Z,60.00
2023-05-15T11:07:28.296Z,60.00
2023-05-15T11:09:56.379Z,59.80
2023-05-15T11:12:24.520Z,59.90
2023-05-15T11:15:21.010Z,59.80
2023-05-15T11:18:06.583Z,59.90
2023-05-15T11:20:37.110Z,60.00
2023-05-15T11:23:05.216Z,59.90
2023-05-15T11:25:33.272Z,59.90
2023-05-15T11:28:01.198Z,59.90
2023-05-15T11:30:39.373Z,59.90
2023-05-15T11:33:11.911Z,60.00
2023-05-15T11:35:42.105Z,59.90
2023-05-15T11:38:14.873Z,59.90
2023-05-15T11:40:47.570Z,59.90
2023-05-15T11:43:19.560Z,60.00
2023-05-15T11:45:48.250Z,59.90
2023-05-15T11:48:18.053Z,59.80
2023-05-15T11:50:47.385Z,59.70
2023-05-15T11:53:15.435Z,59.70
2023-05-15T11:55:44.043Z,59.80
2023-05-15T11:58:12.813Z,59.80
2023-05-15T12:00:41.011Z,59.70
2023-05-15T12:03:15.206Z,59.70
2023-05-15T12:05:54.084Z,59.70
2023-05-15T12:08:26.057Z,59.70
2023-05-15T12:10:54.145Z,59.50
2023-05-15T12:13:22.372Z,59.60
2023-05-15T12:15:51.432Z,59.60
2023-05-15T12:18:19.429Z,60.60
2023-05-15T12:20:49.788Z,59.60
2023-05-15T12:23:18.119Z,59.70
2023-05-15T12:25:46.522Z,59.60
2023-05-15T12:28:14.432Z,59.70
2023-05-15T12:30:42.632Z,59.70
2023-05-15T12:33:11.105Z,59.70
2023-05-15T12:35:42.876Z,59.70
2023-05-15T12:38:15.556Z,59.70
2023-05-15T12:40:44.454Z,59.60
2023-05-15T12:43:12.386Z,59.60
2023-05-15T12:45:40.735Z,59.60
2023-05-15T12:48:08.947Z,59.60
2023-05-15T12:50:37.012Z,59.60
2023-05-15T12:53:05.930Z,59.50
2023-05-15T12:55:36.316Z,59.50
2023-05-15T12:58:07.013Z,59.50
2023-05-15T13:00:35.353Z,59.50
2023-05-15T13:03:03.411Z,59.50
2023-05-15T13:05:33.120Z,59.50
2023-05-15T13:08:01.399Z,59.50
2023-05-15T13:10:29.484Z,59.50
2023-05-15T13:12:58.954Z,59.40
2023-05-15T13:15:28.996Z,59.40
2023-05-15T13:18:01.894Z,59.40
2023-05-15T13:20:30.024Z,59.50
2023-05-15T13:22:57.941Z,59.30
2023-05-15T13:25:25.883Z,59.40
2023-05-15T13:27:53.874Z,59.30
2023-05-15T13:30:23.367Z,59.40
2023-05-15T13:32:55.407Z,59.20
2023-05-15T13:35:23.736Z,59.30
2023-05-15T13:37:51.684Z,59.30
2023-05-15T13:40:19.684Z,59.40
2023-05-15T13:42:47.622Z,59.40
2023-05-15T13:45:16.819Z,59.30
2023-05-15T13:47:46.296Z,59.40
2023-05-15T13:50:14.888Z,59.30
2023-05-15T13:52:43.271Z,59.30
2023-05-15T13:55:11.721Z,59.30
2023-05-15T13:57:39.832Z,59.20
2023-05-15T14:00:10.685Z,59.30
2023-05-15T14:02:38.722Z,59.20
2023-05-15T14:05:09.302Z,59.30
2023-05-15T14:07:37.338Z,59.10
2023-05-15T14:10:06.129Z,59.20
2023-05-15T14:12:34.197Z,59.20
2023-05-15T14:15:02.207Z,59.30
2023-05-15T14:17:30.154Z,59.20
2023-05-15T14:19:58.097Z,59.20
2023-05-15T14:22:27.615Z,59.20
2023-05-15T14:24:55.514Z,59.20
2023-05-15T14:27:23.757Z,59.10
2023-05-15T14:29:51.928Z,59.20
2023-05-15T14:32:20.002Z,59.10
2023-05-15T14:34:50.873Z,59.00
2023-05-15T14:37:19.733Z,59.20
2023-05-15T14:39:49.081Z,59.30
2023-05-15T14:42:17.418Z,59.30
2023-05-15T14:44:45.460Z,59.40
2023-05-15T14:47:13.723Z,59.60
2023-05-15T14:49:41.864Z,59.70
2023-05-15T14:52:10.610Z,59.80
2023-05-15T14:54:38.807Z,59.80
2023-05-15T14:57:08.275Z,59.80
2023-05-15T14:59:36.520Z,60.10
2023-05-15T15:02:04.501Z,60.10
2023-05-15T15:04:34.350Z,59.80
2023-05-15T15:07:04.490Z,60.10
2023-05-15T15:09:32.479Z,60.20
2023-05-15T15:12:00.482Z,60.30
2023-05-15T15:14:30.354Z,60.30
2023-05-15T15:16:58.258Z,60.30
2023-05-15T15:19:26.259Z,60.30
2023-05-15T15:21:54.176Z,60.30
2023-05-15T15:24:22.166Z,60.30
2023-05-15T15:26:50.094Z,60.30
2023-05-15T15:29:18.092Z,60.30
2023-05-15T15:31:47.519Z,60.30
2023-05-15T15:34:15.797Z,60.40
2023-05-15T15:36:43.726Z,60.30
2023-05-15T15:39:12.975Z,60.40
2023-05-15T15:41:41.088Z,60.40
2023-05-15T15:44:09.147Z,60.30
2023-05-15T15:46:37.050Z,60.30
2023-05-15T15:49:07.448Z,60.30
2023-05-15T15:51:35.522Z,60.40
2023-05-15T15:54:03.546Z,60.40
2023-05-15T15:56:31.484Z,60.40
2023-05-15T15:58:59.394Z,60.40
2023-05-15T16:01:27.372Z,60.40
2023-05-15T16:03:55.451Z,60.40
2023-05-15T16:06:24.769Z,60.40
2023-05-15T16:08:52.775Z,60.40
2023-05-15T16:11:21.413Z,60.50
2023-05-15T16:13:49.329Z,60.50
2023-05-15T16:16:17.311Z,60.50
2023-05-15T16:18:45.825Z,60.50
2023-05-15T16:21:13.923Z,60.50
2023-05-15T16:23:43.203Z,60.50
2023-05-15T16:26:11.196Z,60.50
2023-05-15T16:28:39.165Z,60.50
2023-05-15T16:31:07.909Z,60.50
2023-05-15T16:33:35.884Z,60.40
2023-05-15T16:36:05.129Z,60.50
2023-05-15T16:38:33.068Z,60.50
2023-05-15T16:41:02.462Z,60.50
2023-05-15T16:43:30.427Z,60.50
2023-05-15T16:45:58.931Z,60.50
2023-05-15T16:48:27.930Z,60.50
2023-05-15T16:50:55.923Z,60.50
2023-05-15T16:53:23.876Z,60.50
2023-05-15T16:55:51.833Z,60.50
2023-05-15T16:58:21.163Z,60.50
2023-05-15T17:01:05.261Z,60.40
2023-05-15T17:03:33.288Z,60.40
2023-05-15T17:06:01.314Z,60.40
2023-05-15T17:08:29.424Z,60.40
2023-05-15T17:10:57.334Z,60.40
2023-05-15T17:13:26.560Z,60.40
2023-05-15T17:15:55.643Z,60.30
2023-05-15T17:18:24.915Z,60.40
2023-05-15T17:20:52.807Z,60.40
2023-05-15T17:23:22.841Z,60.40
2023-05-15T17:25:51.289Z,60.30
2023-05-15T17:28:19.224Z,60.30
2023-05-15T17:30:47.441Z,60.30
2023-05-15T17:33:15.500Z,60.30
2023-05-15T17:35:44.770Z,60.20
2023-05-15T17:38:12.778Z,60.30
2023-05-15T17:40:41.033Z,60.20
2023-05-15T17:43:10.186Z,60.20
2023-05-15T17:45:38.204Z,60.30
2023-05-15T17:48:06.942Z,60.20
2023-05-15T17:50:37.954Z,60.30
2023-05-15T17:53:07.243Z,60.20
2023-05-15T17:55:35.185Z,60.00
2023-05-15T17:58:03.203Z,60.00
2023-05-15T18:00:31.095Z,59.90
2023-05-15T18:03:00.721Z,59.90
2023-05-15T18:05:29.500Z,59.90
2023-05-15T18:08:00.249Z,59.90
2023-05-15T18:10:29.573Z,59.80
2023-05-15T18:12:57.529Z,59.90
2023-05-15T18:15:25.650Z,60.10
2023-05-15T18:17:53.858Z,60.10
2023-05-15T18:20:21.993Z,60.20
2023-05-15T18:22:50.727Z,60.10
2023-05-15T18:25:18.979Z,60.80
2023-05-15T18:27:48.251Z,61.10
2023-05-15T18:30:16.409Z,62.50
2023-05-15T18:32:44.363Z,62.40
2023-05-15T18:35:12.409Z,62.70
2023-05-15T18:37:40.384Z,62.50
2023-05-15T18:40:09.675Z,63.10
2023-05-15T18:42:37.623Z,63.10
2023-05-15T18:45:08.427Z,63.40
2023-05-15T18:47:36.435Z,63.20
2023-05-15T18:50:04.615Z,63.50
2023-05-15T18:52:32.662Z,63.90
2023-05-15T18:55:01.411Z,63.50
2023-05-15T18:57:29.334Z,63.50
2023-05-15T18:59:57.397Z,63.50
2023-05-15T19:02:26.680Z,63.60
2023-05-15T19:04:54.583Z,63.60
2023-05-15T19:07:22.641Z,63.70
2023-05-15T19:09:50.579Z,63.60
2023-05-15T19:12:18.557Z,63.50
2023-05-15T19:14:46.687Z,63.50
2023-05-15T19:17:14.737Z,63.50
2023-05-15T19:19:43.998Z,63.50
2023-05-15T19:22:11.940Z,63.50
2023-05-15T19:24:39.948Z,63.40
2023-05-15T19:27:07.923Z,63.40
2023-05-15T19:29:35.828Z,63.30
2023-05-15T19:32:03.834Z,63.30
2023-05-15T19:34:31.993Z,63.20
2023-05-15T19:37:01.477Z,63.30
2023-05-15T19:39:29.371Z,63.10
2023-05-15T19:41:57.906Z,63.20
2023-05-15T19:44:25.841Z,63.20
2023-05-15T19:46:54.564Z,63.40
2023-05-15T19:49:22.601Z,63.20
2023-05-15T19:51:50.554Z,63.10
2023-05-15T19:54:19.841Z,62.90
2023-05-15T19:56:47.775Z,63.20
2023-05-15T19:59:15.692Z,63.10
2023-05-15T20:01:43.664Z,63.10
2023-05-15T20:04:13.471Z,63.00
2023-05-15T20:06:41.871Z,63.20
2023-05-15T20:09:10.044Z,63.20
2023-05-15T20:11:39.297Z,63.10
2023-05-15T20:14:07.227Z,63.50
2023-05-15T20:16:35.325Z,63.70
2023-05-15T20:19:04.072Z,63.70
2023-05-15T20:21:32.568Z,63.70
2023-05-15T20:24:00.467Z,63.70
2023-05-15T20:26:28.409Z,64.10
2023-05-15T20:28:57.663Z,63.90
2023-05-15T20:31:25.633Z,64.30
2023-05-15T20:33:53.696Z,64.40
2023-05-15T20:36:22.678Z,64.40
2023-05-15T20:38:51.777Z,64.50
2023-05-15T20:41:22.248Z,64.50
2023-05-15T20:43:51.315Z,64.60
2023-05-15T20:46:21.148Z,64.50
2023-05-15T20:48:49.133Z,64.70
2023-05-15T20:51:17.143Z,65.10
2023-05-15T20:53:45.040Z,65.50
2023-05-15T20:56:12.929Z,65.70
2023-05-15T20:58:40.828Z,65.70
2023-05-15T21:01:08.835Z,65.60
2023-05-15T21:03:38.430Z,65.60
2023-05-15T21:06:06.522Z,65.60
2023-05-15T21:08:34.431Z,65.60
2023-05-15T21:11:02.342Z,65.60
2023-05-15T21:13:30.335Z,65.70
2023-05-15T21:15:58.257Z,65.70
2023-05-15T21:18:26.131Z,65.80
2023-05-15T21:20:55.517Z,65.80
2023-05-15T21:23:23.417Z,65.80
2023-05-15T21:25:51.310Z,65.80
2023-05-15T21:28:19.195Z,65.80
2023-05-15T21:30:47.171Z,65.80
2023-05-15T21:33:15.163Z,65.90
2023-05-15T21:35:43.126Z,65.90
2023-05-15T21:38:12.445Z,65.80
2023-05-15T21:40:40.898Z,65.90
2023-05-15T21:43:08.927Z,65.90
2023-05-15T21:45:36.812Z,65.80
2023-05-15T21:48:04.914Z,65.90
2023-05-15T21:50:32.981Z,65.90
2023-05-15T21:53:01.108Z,65.90
2023-05-15T21:55:30.330Z,65.90
2023-05-15T21:57:58.255Z,66.00
2023-05-15T22:00:26.815Z,65.90
2023-05-15T22:02:55.016Z,65.90
2023-05-15T22:05:23.125Z,65.90
2023-05-15T22:07:51.026Z,65.90
2023-05-15T22:10:18.978Z,65.80
2023-05-15T22:12:49.404Z,65.80
2023-05-15T22:15:17.407Z,65.80
2023-05-15T22:17:45.439Z,65.80
2023-05-15T22:20:14.104Z,65.80
2023-05-15T22:22:43.792Z,65.80
2023-05-15T22:25:11.905Z,65.80
2023-05-15T22:27:39.815Z,65.80
2023-05-15T22:30:10.393Z,65.80
2023-05-15T22:32:38.373Z,66.40
2023-05-15T22:35:08.238Z,65.80
2023-05-15T22:37:36.706Z,65.90
2023-05-15T22:40:07.186Z,65.90
2023-05-15T22:42:35.120Z,65.90
2023-05-15T22:45:03.288Z,65.90
2023-05-15T22:47:32.612Z,66.00
2023-05-15T22:50:00.714Z,66.10
2023-05-15T22:52:28.697Z,66.10
2023-05-15T22:54:56.613Z,66.00
2023-05-15T22:57:25.751Z,66.00
2023-05-15T22:59:53.685Z,66.00
2023-05-15T23:02:21.652Z,66.10
2023-05-15T23:04:50.991Z,66.00
2023-05-15T23:07:18.902Z,66.00
2023-05-15T23:09:46.784Z,66.00
2023-05-15T23:12:14.839Z,66.00
2023-05-15T23:14:42.738Z,66.10
2023-05-15T23:17:10.652Z,66.00
2023-05-15T23:19:38.586Z,66.10
2023-05-15T23:22:07.977Z,66.10
2023-05-15T23:24:35.874Z,66.10
2023-05-15T23:27:04.541Z,66.10
2023-05-15T23:29:33.743Z,66.00
2023-05-15T23:32:01.612Z,66.10
2023-05-15T23:34:29.615Z,66.00
2023-05-15T23:36:57.575Z,66.00
2023-05-15T23:39:26.805Z,66.00
2023-05-15T23:41:54.691Z,66.10
2023-05-15T23:44:22.607Z,66.00
2023-05-15T23:46:50.518Z,66.00
2023-05-15T23:49:18.841Z,66.20
2023-05-15T23:51:46.844Z,66.10
2023-05-15T23:54:14.706Z,66.10
2023-05-15T23:56:43.927Z,66.10
2023-05-15T23:59:12.157Z,66.10
